Relevés horaires Matro (Suisse)


Relevés horaires à Matro - Lundi 17 Août 2026
Heure UTC1 Température [°C] Vent [km/h] Hum. [%] Pres.4 [hPa] Visi. [Km] Nébu. [octa] Préc.5 [mm] Cond.
2m. Res. Ros. Dir.2 Vit. Moy. Raf.3
23:00 10.9 7.8 3.6 NNO 29.6 -- 42.6 61 850(0.1/3h) -- -- -- --
22:00 10.8 7.6 4.2 NO 29.6 -- 42.6 64 850(0.1/3h) -- -- -- --
21:00 10.7 7.6 4.2 NO 27.8 -- 48.2 64 850 -- -- -- --
20:00 10.1 6.6 4.6 NNO 31.5 -- 48.2 69 850(0.6/3h) -- -- -- --
19:00 10.3 7.3 3.8 NNO 25.9 -- 48.2 64 850 -- -- -- --
18:00 10.6 6.9 2.8 NNO 37.0 -- 57.4 58 850 -- -- -- --
17:00 12.1 9.2 2.4 NO 31.5 -- 50.0 51 850 -- -- -- --
16:00 11.9 9.2 4.9 NO 27.8 -- 44.4 62 850(-1.0/3h) -- -- -- --
15:00 11.5 9.1 5.1 NO 22.2 -- 37.0 65 850(-1.1/3h) -- -- -- --
14:00 11.1 8.9 5.3 NNO 18.5 -- 37.0 67 850(-0.4/3h) -- -- -- --
13:00 10.5 7.4 5.0 NO 27.8 -- 37.0 69 850 -- -- -- --
12:00 10.2 7.3 6.1 NNO 24.1 -- 46.3 76 850(0.7/3h) -- -- -- --
11:00 10.5 8.2 7.6 NO 18.5 -- 40.7 82 850 -- -- -- --
10:00 13.5 12.4 5.8 NNO 13.0 -- 20.4 60 850(-0.1/3h) -- -- -- --
09:00 13.5 12.9 6.3 NO 9.3 -- 24.1 62 850(-0.3/3h) -- -- -- --
08:00 13.2 11.7 5.8 NNO 16.7 -- -- 61 850 -- -- -- --
07:00 12.7 12 6.2 NNO 9.3 -- 24.1 65 850 -- -- -- --
06:00 12.6 11.6 6.0 NNO 11.1 -- 35.2 64 850(-0.3/3h) -- -- -- --
05:00 12.5 10.2 6.0 NO 24.1 -- 35.2 65 850(-0.9/3h) -- -- -- --
04:00 12.6 10.6 5.9 NO 20.4 -- 29.6 64 850(-1.4/3h) -- -- -- --
03:00 12.5 10.5 6.0 NO 20.4 -- 25.9 65 850(-1.5/3h) -- -- -- --
02:00 12.3 10.8 5.8 NNO 14.8 -- 18.5 64 850(-1.4/3h) -- -- -- --
01:00 11.7 11.1 5.4 NNO 7.4 -- 13.0 65 850(-0.8/3h) -- -- -- --
00:00 11.1 9.5 6.2 NO 13.0 -- 57.4 72 850(-0.4/3h) -- -- -- --

1 Coordinated Universal Time. Actuellement il est 08:00 locale et 06:00 UTC.

2 Le vent souffle depuis la direction indiquée vers la direction oposée.

3 Les rafales max. sont disponible 40 min après l'heure du relevé.

4 Pour les stations d'altitude (plus de 600m) le géopotentiel du niveau le plus proche de la pression obligatoire est indiqué.

5 Les stations disposant d'un diffuseur peuvent indiquer "trace". Cela signifie que des précipitations ont touchés le sol mais que la quantité est inférieure à 0.1 mm.

Copyright

Les données affichées sur cette page sont la propriété exclusive de Météo Suisse.

Récapitulatif de la journée
Température [°C] Vent [km/h] Ensoleillement4 [h] Precipitations totale5 [mm] Pression [Hpa]
Min1 Max.2 Moy.3 Max. Min Max.
9.6 14.1 0 57.4 6 h 12 min 0 850.0 850.0

1 Température minimale relevée entre 18:00 UTC la veille et 18:00 UTC le jour donné.

2 Température maximale relevée entre 06:00 UTC le jour donné et 06:00 UTC le lendemain.

3 Vent moyen de la journée basé sur les relevés horaires.

4 Ensoleillement en heures relevé entre 06:00 UTC la veille et 06:00 UTC le jour donné.

5 Précipitations totales tombées entre 06:00 UTC la jour donné et 06:00 UTC le lendemain.

Graphiques horaires